sensor_id;sensor_type;location;lat;lon;timestamp;P1;durP1;ratioP1;P2;durP2;ratioP2
6133;SDS011;3098;42.678;23.364;2023-08-06T00:01:36;5.57;;;3.20;;
6133;SDS011;3098;42.678;23.364;2023-08-06T00:04:03;7.47;;;3.60;;
6133;SDS011;3098;42.678;23.364;2023-08-06T00:06:30;6.35;;;3.40;;
6133;SDS011;3098;42.678;23.364;2023-08-06T00:08:59;5.63;;;3.05;;
6133;SDS011;3098;42.678;23.364;2023-08-06T00:11:25;7.43;;;3.67;;
6133;SDS011;3098;42.678;23.364;2023-08-06T00:13:52;5.95;;;3.30;;
6133;SDS011;3098;42.678;23.364;2023-08-06T00:16:19;5.50;;;3.05;;
6133;SDS011;3098;42.678;23.364;2023-08-06T00:18:46;6.53;;;3.15;;
6133;SDS011;3098;42.678;23.364;2023-08-06T00:21:13;4.30;;;2.70;;
6133;SDS011;3098;42.678;23.364;2023-08-06T00:23:41;5.07;;;3.30;;
6133;SDS011;3098;42.678;23.364;2023-08-06T00:26:09;6.25;;;3.22;;
6133;SDS011;3098;42.678;23.364;2023-08-06T00:28:36;4.88;;;3.10;;
6133;SDS011;3098;42.678;23.364;2023-08-06T00:31:03;5.82;;;3.42;;
6133;SDS011;3098;42.678;23.364;2023-08-06T00:33:30;5.38;;;3.13;;
6133;SDS011;3098;42.678;23.364;2023-08-06T00:35:57;6.35;;;3.80;;
6133;SDS011;3098;42.678;23.364;2023-08-06T00:38:24;7.15;;;3.72;;
6133;SDS011;3098;42.678;23.364;2023-08-06T00:40:51;5.47;;;3.63;;
6133;SDS011;3098;42.678;23.364;2023-08-06T00:43:19;7.30;;;3.88;;
6133;SDS011;3098;42.678;23.364;2023-08-06T00:45:46;8.00;;;4.43;;
6133;SDS011;3098;42.678;23.364;2023-08-06T00:48:13;8.52;;;4.35;;
6133;SDS011;3098;42.678;23.364;2023-08-06T00:50:41;7.78;;;4.45;;
6133;SDS011;3098;42.678;23.364;2023-08-06T00:53:08;10.60;;;5.13;;
6133;SDS011;3098;42.678;23.364;2023-08-06T00:55:35;8.07;;;5.35;;
6133;SDS011;3098;42.678;23.364;2023-08-06T00:58:02;9.38;;;4.38;;
6133;SDS011;3098;42.678;23.364;2023-08-06T01:00:31;9.30;;;4.53;;
6133;SDS011;3098;42.678;23.364;2023-08-06T01:02:58;9.93;;;4.88;;
6133;SDS011;3098;42.678;23.364;2023-08-06T01:05:26;9.23;;;5.28;;
6133;SDS011;3098;42.678;23.364;2023-08-06T01:07:58;7.68;;;4.90;;
6133;SDS011;3098;42.678;23.364;2023-08-06T01:10:41;5.63;;;4.07;;
6133;SDS011;3098;42.678;23.364;2023-08-06T01:13:18;9.77;;;4.70;;
6133;SDS011;3098;42.678;23.364;2023-08-06T01:15:55;10.05;;;5.30;;
6133;SDS011;3098;42.678;23.364;2023-08-06T01:18:24;13.38;;;6.07;;
6133;SDS011;3098;42.678;23.364;2023-08-06T01:20:53;9.60;;;6.20;;
6133;SDS011;3098;42.678;23.364;2023-08-06T01:23:20;11.82;;;5.90;;
6133;SDS011;3098;42.678;23.364;2023-08-06T01:25:49;12.50;;;5.85;;
6133;SDS011;3098;42.678;23.364;2023-08-06T01:28:23;10.18;;;5.82;;
6133;SDS011;3098;42.678;23.364;2023-08-06T01:30:59;10.13;;;5.32;;
6133;SDS011;3098;42.678;23.364;2023-08-06T01:33:31;13.52;;;5.53;;
6133;SDS011;3098;42.678;23.364;2023-08-06T01:36:01;17.63;;;5.55;;
6133;SDS011;3098;42.678;23.364;2023-08-06T01:38:30;16.13;;;5.90;;
6133;SDS011;3098;42.678;23.364;2023-08-06T01:40:57;9.85;;;5.47;;
6133;SDS011;3098;42.678;23.364;2023-08-06T01:43:24;7.47;;;4.53;;
6133;SDS011;3098;42.678;23.364;2023-08-06T01:45:51;8.15;;;4.47;;
6133;SDS011;3098;42.678;23.364;2023-08-06T01:48:19;12.02;;;5.72;;
6133;SDS011;3098;42.678;23.364;2023-08-06T01:50:46;8.05;;;4.78;;
6133;SDS011;3098;42.678;23.364;2023-08-06T01:53:14;7.93;;;4.50;;
6133;SDS011;3098;42.678;23.364;2023-08-06T01:55:41;8.10;;;4.45;;
6133;SDS011;3098;42.678;23.364;2023-08-06T01:58:08;9.63;;;4.53;;
6133;SDS011;3098;42.678;23.364;2023-08-06T02:00:35;11.50;;;4.75;;
6133;SDS011;3098;42.678;23.364;2023-08-06T02:03:02;10.40;;;5.45;;
6133;SDS011;3098;42.678;23.364;2023-08-06T02:05:29;8.18;;;4.60;;
6133;SDS011;3098;42.678;23.364;2023-08-06T02:07:56;7.68;;;4.47;;
6133;SDS011;3098;42.678;23.364;2023-08-06T02:10:24;9.18;;;4.13;;
6133;SDS011;3098;42.678;23.364;2023-08-06T02:12:51;8.77;;;4.30;;
6133;SDS011;3098;42.678;23.364;2023-08-06T02:15:18;5.95;;;4.30;;
6133;SDS011;3098;42.678;23.364;2023-08-06T02:17:45;11.98;;;5.15;;
6133;SDS011;3098;42.678;23.364;2023-08-06T02:20:12;8.65;;;4.95;;
6133;SDS011;3098;42.678;23.364;2023-08-06T02:22:41;8.80;;;5.45;;
6133;SDS011;3098;42.678;23.364;2023-08-06T02:25:08;9.95;;;4.88;;
6133;SDS011;3098;42.678;23.364;2023-08-06T02:27:36;10.10;;;4.78;;
6133;SDS011;3098;42.678;23.364;2023-08-06T02:30:04;7.10;;;4.55;;
6133;SDS011;3098;42.678;23.364;2023-08-06T02:32:32;8.75;;;4.97;;
6133;SDS011;3098;42.678;23.364;2023-08-06T02:35:00;7.93;;;4.25;;
6133;SDS011;3098;42.678;23.364;2023-08-06T02:37:27;9.35;;;4.53;;
6133;SDS011;3098;42.678;23.364;2023-08-06T02:39:54;6.20;;;3.97;;
6133;SDS011;3098;42.678;23.364;2023-08-06T02:42:21;7.70;;;4.10;;
6133;SDS011;3098;42.678;23.364;2023-08-06T02:44:50;8.23;;;4.18;;
6133;SDS011;3098;42.678;23.364;2023-08-06T02:47:17;10.43;;;4.43;;
6133;SDS011;3098;42.678;23.364;2023-08-06T02:49:44;5.90;;;3.35;;
6133;SDS011;3098;42.678;23.364;2023-08-06T02:52:11;5.32;;;3.25;;
6133;SDS011;3098;42.678;23.364;2023-08-06T02:54:38;5.63;;;3.50;;
6133;SDS011;3098;42.678;23.364;2023-08-06T02:57:06;7.07;;;3.45;;
6133;SDS011;3098;42.678;23.364;2023-08-06T02:59:33;11.60;;;3.60;;
6133;SDS011;3098;42.678;23.364;2023-08-06T03:02:01;5.47;;;3.35;;
6133;SDS011;3098;42.678;23.364;2023-08-06T03:04:28;8.75;;;3.45;;
6133;SDS011;3098;42.678;23.364;2023-08-06T03:06:55;6.43;;;3.58;;
6133;SDS011;3098;42.678;23.364;2023-08-06T03:09:22;6.30;;;3.55;;
6133;SDS011;3098;42.678;23.364;2023-08-06T03:11:49;6.07;;;3.42;;
6133;SDS011;3098;42.678;23.364;2023-08-06T03:14:17;5.80;;;3.55;;
6133;SDS011;3098;42.678;23.364;2023-08-06T03:16:43;12.52;;;3.97;;
6133;SDS011;3098;42.678;23.364;2023-08-06T03:19:12;7.00;;;3.80;;
6133;SDS011;3098;42.678;23.364;2023-08-06T03:21:38;7.80;;;4.22;;
6133;SDS011;3098;42.678;23.364;2023-08-06T03:24:06;6.00;;;4.22;;
6133;SDS011;3098;42.678;23.364;2023-08-06T03:26:32;8.45;;;4.05;;
6133;SDS011;3098;42.678;23.364;2023-08-06T03:29:00;7.13;;;4.35;;
6133;SDS011;3098;42.678;23.364;2023-08-06T03:31:26;6.55;;;3.65;;
6133;SDS011;3098;42.678;23.364;2023-08-06T03:33:54;12.02;;;4.63;;
6133;SDS011;3098;42.678;23.364;2023-08-06T03:36:22;10.00;;;4.93;;
6133;SDS011;3098;42.678;23.364;2023-08-06T03:38:50;9.02;;;4.75;;
6133;SDS011;3098;42.678;23.364;2023-08-06T03:41:16;14.90;;;6.45;;
6133;SDS011;3098;42.678;23.364;2023-08-06T03:43:44;8.77;;;5.38;;
6133;SDS011;3098;42.678;23.364;2023-08-06T03:46:11;8.75;;;5.22;;
6133;SDS011;3098;42.678;23.364;2023-08-06T03:48:38;10.05;;;4.95;;
6133;SDS011;3098;42.678;23.364;2023-08-06T03:51:05;7.72;;;4.70;;
6133;SDS011;3098;42.678;23.364;2023-08-06T03:53:33;7.13;;;4.32;;
6133;SDS011;3098;42.678;23.364;2023-08-06T03:56:00;7.60;;;4.10;;
6133;SDS011;3098;42.678;23.364;2023-08-06T03:58:27;8.20;;;4.10;;
6133;SDS011;3098;42.678;23.364;2023-08-06T04:00:58;6.43;;;4.22;;
6133;SDS011;3098;42.678;23.364;2023-08-06T04:03:26;10.30;;;4.45;;
6133;SDS011;3098;42.678;23.364;2023-08-06T04:05:53;8.13;;;4.57;;
6133;SDS011;3098;42.678;23.364;2023-08-06T04:08:21;8.85;;;4.68;;
6133;SDS011;3098;42.678;23.364;2023-08-06T04:10:50;7.25;;;4.78;;
6133;SDS011;3098;42.678;23.364;2023-08-06T04:13:18;7.68;;;4.47;;
6133;SDS011;3098;42.678;23.364;2023-08-06T04:15:45;5.97;;;4.05;;
6133;SDS011;3098;42.678;23.364;2023-08-06T04:18:12;8.02;;;4.65;;
6133;SDS011;3098;42.678;23.364;2023-08-06T04:20:42;10.95;;;6.00;;
6133;SDS011;3098;42.678;23.364;2023-08-06T04:23:10;7.82;;;4.00;;
6133;SDS011;3098;42.678;23.364;2023-08-06T04:25:37;6.93;;;4.35;;
6133;SDS011;3098;42.678;23.364;2023-08-06T04:28:07;8.20;;;4.82;;
6133;SDS011;3098;42.678;23.364;2023-08-06T04:30:34;7.55;;;4.80;;
6133;SDS011;3098;42.678;23.364;2023-08-06T04:33:01;9.18;;;5.25;;
6133;SDS011;3098;42.678;23.364;2023-08-06T04:35:28;8.68;;;5.07;;
6133;SDS011;3098;42.678;23.364;2023-08-06T04:37:55;8.05;;;5.22;;
6133;SDS011;3098;42.678;23.364;2023-08-06T04:40:21;11.75;;;6.40;;
6133;SDS011;3098;42.678;23.364;2023-08-06T04:42:48;8.27;;;4.68;;
6133;SDS011;3098;42.678;23.364;2023-08-06T04:45:17;8.30;;;5.20;;
6133;SDS011;3098;42.678;23.364;2023-08-06T04:47:46;6.00;;;4.45;;
6133;SDS011;3098;42.678;23.364;2023-08-06T04:50:13;9.45;;;4.72;;
6133;SDS011;3098;42.678;23.364;2023-08-06T04:52:40;8.18;;;5.00;;
6133;SDS011;3098;42.678;23.364;2023-08-06T04:55:07;8.32;;;5.32;;
6133;SDS011;3098;42.678;23.364;2023-08-06T04:57:34;7.20;;;4.55;;
6133;SDS011;3098;42.678;23.364;2023-08-06T05:00:01;9.98;;;4.70;;
6133;SDS011;3098;42.678;23.364;2023-08-06T05:02:30;7.82;;;5.45;;
6133;SDS011;3098;42.678;23.364;2023-08-06T05:04:58;9.95;;;5.95;;
6133;SDS011;3098;42.678;23.364;2023-08-06T05:07:25;8.13;;;4.60;;
6133;SDS011;3098;42.678;23.364;2023-08-06T05:09:52;8.45;;;5.32;;
6133;SDS011;3098;42.678;23.364;2023-08-06T05:12:19;7.93;;;5.47;;
6133;SDS011;3098;42.678;23.364;2023-08-06T05:14:47;6.80;;;4.47;;
6133;SDS011;3098;42.678;23.364;2023-08-06T05:17:14;8.85;;;5.18;;
6133;SDS011;3098;42.678;23.364;2023-08-06T05:19:43;7.25;;;4.70;;
6133;SDS011;3098;42.678;23.364;2023-08-06T05:22:11;6.45;;;3.92;;
6133;SDS011;3098;42.678;23.364;2023-08-06T05:24:39;7.57;;;3.90;;
6133;SDS011;3098;42.678;23.364;2023-08-06T05:27:07;6.15;;;3.50;;
6133;SDS011;3098;42.678;23.364;2023-08-06T05:29:35;8.73;;;3.53;;
6133;SDS011;3098;42.678;23.364;2023-08-06T05:32:02;6.25;;;4.15;;
6133;SDS011;3098;42.678;23.364;2023-08-06T05:34:30;7.00;;;4.50;;
6133;SDS011;3098;42.678;23.364;2023-08-06T05:36:59;10.30;;;4.78;;
6133;SDS011;3098;42.678;23.364;2023-08-06T05:39:26;7.88;;;5.07;;
6133;SDS011;3098;42.678;23.364;2023-08-06T05:41:54;6.47;;;4.70;;
6133;SDS011;3098;42.678;23.364;2023-08-06T05:44:22;8.05;;;5.03;;
6133;SDS011;3098;42.678;23.364;2023-08-06T05:46:51;9.73;;;4.43;;
6133;SDS011;3098;42.678;23.364;2023-08-06T05:49:18;8.35;;;4.95;;
6133;SDS011;3098;42.678;23.364;2023-08-06T05:51:46;8.23;;;4.85;;
6133;SDS011;3098;42.678;23.364;2023-08-06T05:54:16;7.20;;;3.97;;
6133;SDS011;3098;42.678;23.364;2023-08-06T05:56:45;6.30;;;4.20;;
6133;SDS011;3098;42.678;23.364;2023-08-06T05:59:13;8.02;;;4.43;;
6133;SDS011;3098;42.678;23.364;2023-08-06T06:01:42;5.05;;;3.60;;
6133;SDS011;3098;42.678;23.364;2023-08-06T06:04:09;5.43;;;3.55;;
6133;SDS011;3098;42.678;23.364;2023-08-06T06:06:37;4.15;;;2.95;;
6133;SDS011;3098;42.678;23.364;2023-08-06T06:09:07;3.05;;;2.10;;
6133;SDS011;3098;42.678;23.364;2023-08-06T06:11:38;4.10;;;2.47;;
6133;SDS011;3098;42.678;23.364;2023-08-06T06:14:05;3.55;;;2.42;;
6133;SDS011;3098;42.678;23.364;2023-08-06T06:16:33;2.72;;;2.00;;
6133;SDS011;3098;42.678;23.364;2023-08-06T06:19:01;4.32;;;2.17;;
6133;SDS011;3098;42.678;23.364;2023-08-06T06:21:28;10.68;;;2.33;;
6133;SDS011;3098;42.678;23.364;2023-08-06T06:23:55;4.30;;;2.78;;
6133;SDS011;3098;42.678;23.364;2023-08-06T06:26:22;4.25;;;2.95;;
6133;SDS011;3098;42.678;23.364;2023-08-06T06:28:50;4.28;;;2.00;;
6133;SDS011;3098;42.678;23.364;2023-08-06T06:31:18;4.07;;;2.33;;
6133;SDS011;3098;42.678;23.364;2023-08-06T06:33:44;4.07;;;2.60;;
6133;SDS011;3098;42.678;23.364;2023-08-06T06:36:11;2.53;;;1.98;;
6133;SDS011;3098;42.678;23.364;2023-08-06T06:38:38;3.40;;;2.42;;
6133;SDS011;3098;42.678;23.364;2023-08-06T06:41:06;2.40;;;2.00;;
6133;SDS011;3098;42.678;23.364;2023-08-06T06:43:33;3.85;;;2.00;;
6133;SDS011;3098;42.678;23.364;2023-08-06T06:46:02;4.85;;;2.20;;
6133;SDS011;3098;42.678;23.364;2023-08-06T06:48:30;13.82;;;7.07;;
6133;SDS011;3098;42.678;23.364;2023-08-06T06:50:58;3.28;;;2.10;;
6133;SDS011;3098;42.678;23.364;2023-08-06T06:53:26;2.85;;;1.80;;
6133;SDS011;3098;42.678;23.364;2023-08-06T06:55:53;2.78;;;2.05;;
6133;SDS011;3098;42.678;23.364;2023-08-06T06:58:21;4.00;;;2.30;;
6133;SDS011;3098;42.678;23.364;2023-08-06T07:00:48;3.03;;;2.05;;
6133;SDS011;3098;42.678;23.364;2023-08-06T07:03:17;4.47;;;2.20;;
6133;SDS011;3098;42.678;23.364;2023-08-06T07:05:44;4.07;;;2.83;;
6133;SDS011;3098;42.678;23.364;2023-08-06T07:08:11;5.38;;;2.08;;
6133;SDS011;3098;42.678;23.364;2023-08-06T07:10:40;2.28;;;1.77;;
6133;SDS011;3098;42.678;23.364;2023-08-06T07:13:07;2.83;;;2.10;;
6133;SDS011;3098;42.678;23.364;2023-08-06T07:15:36;6.32;;;2.53;;
6133;SDS011;3098;42.678;23.364;2023-08-06T07:18:03;4.40;;;2.78;;
6133;SDS011;3098;42.678;23.364;2023-08-06T07:20:32;3.50;;;2.30;;
6133;SDS011;3098;42.678;23.364;2023-08-06T07:23:00;8.90;;;2.72;;
6133;SDS011;3098;42.678;23.364;2023-08-06T07:25:27;3.25;;;2.30;;
6133;SDS011;3098;42.678;23.364;2023-08-06T07:27:56;4.00;;;2.33;;
6133;SDS011;3098;42.678;23.364;2023-08-06T07:30:23;4.38;;;2.70;;
6133;SDS011;3098;42.678;23.364;2023-08-06T07:32:50;4.25;;;2.70;;
6133;SDS011;3098;42.678;23.364;2023-08-06T07:35:17;2.80;;;2.40;;
6133;SDS011;3098;42.678;23.364;2023-08-06T07:37:46;5.10;;;2.83;;
6133;SDS011;3098;42.678;23.364;2023-08-06T07:40:13;6.00;;;2.65;;
6133;SDS011;3098;42.678;23.364;2023-08-06T07:42:40;8.45;;;2.72;;
6133;SDS011;3098;42.678;23.364;2023-08-06T07:45:08;3.65;;;2.08;;
6133;SDS011;3098;42.678;23.364;2023-08-06T07:47:36;7.40;;;2.25;;
6133;SDS011;3098;42.678;23.364;2023-08-06T07:50:03;4.63;;;2.90;;
6133;SDS011;3098;42.678;23.364;2023-08-06T07:52:31;4.85;;;2.35;;
6133;SDS011;3098;42.678;23.364;2023-08-06T07:54:59;3.70;;;2.33;;
6133;SDS011;3098;42.678;23.364;2023-08-06T07:57:30;3.08;;;2.60;;
6133;SDS011;3098;42.678;23.364;2023-08-06T07:59:57;3.35;;;2.28;;
6133;SDS011;3098;42.678;23.364;2023-08-06T08:02:24;2.88;;;2.28;;
6133;SDS011;3098;42.678;23.364;2023-08-06T08:04:52;4.43;;;2.63;;
6133;SDS011;3098;42.678;23.364;2023-08-06T08:07:19;2.45;;;2.25;;
6133;SDS011;3098;42.678;23.364;2023-08-06T08:09:47;3.53;;;2.20;;
6133;SDS011;3098;42.678;23.364;2023-08-06T08:12:16;3.45;;;2.42;;
6133;SDS011;3098;42.678;23.364;2023-08-06T08:14:43;4.95;;;2.92;;
6133;SDS011;3098;42.678;23.364;2023-08-06T08:17:10;3.20;;;2.20;;
6133;SDS011;3098;42.678;23.364;2023-08-06T08:19:39;2.45;;;1.98;;
6133;SDS011;3098;42.678;23.364;2023-08-06T08:22:06;9.23;;;2.92;;
6133;SDS011;3098;42.678;23.364;2023-08-06T08:24:34;3.45;;;2.50;;
6133;SDS011;3098;42.678;23.364;2023-08-06T08:27:01;6.60;;;2.35;;
6133;SDS011;3098;42.678;23.364;2023-08-06T08:29:32;5.88;;;3.35;;
6133;SDS011;3098;42.678;23.364;2023-08-06T08:32:00;3.05;;;2.38;;
6133;SDS011;3098;42.678;23.364;2023-08-06T08:34:27;3.47;;;2.78;;
6133;SDS011;3098;42.678;23.364;2023-08-06T08:36:54;3.08;;;2.65;;
6133;SDS011;3098;42.678;23.364;2023-08-06T08:39:21;6.50;;;2.60;;
6133;SDS011;3098;42.678;23.364;2023-08-06T08:41:48;3.97;;;2.50;;
6133;SDS011;3098;42.678;23.364;2023-08-06T08:44:15;3.38;;;2.67;;
6133;SDS011;3098;42.678;23.364;2023-08-06T08:46:45;5.93;;;3.13;;
6133;SDS011;3098;42.678;23.364;2023-08-06T08:49:14;3.60;;;2.60;;
6133;SDS011;3098;42.678;23.364;2023-08-06T08:51:41;4.55;;;2.33;;
6133;SDS011;3098;42.678;23.364;2023-08-06T08:54:11;4.53;;;2.90;;
6133;SDS011;3098;42.678;23.364;2023-08-06T08:56:40;3.92;;;3.10;;
6133;SDS011;3098;42.678;23.364;2023-08-06T08:59:08;4.72;;;2.70;;
6133;SDS011;3098;42.678;23.364;2023-08-06T09:01:36;2.72;;;2.35;;
6133;SDS011;3098;42.678;23.364;2023-08-06T09:04:08;2.80;;;2.50;;
6133;SDS011;3098;42.678;23.364;2023-08-06T09:06:37;3.60;;;2.42;;
6133;SDS011;3098;42.678;23.364;2023-08-06T09:09:06;3.13;;;2.53;;
6133;SDS011;3098;42.678;23.364;2023-08-06T09:11:36;4.00;;;2.53;;
6133;SDS011;3098;42.678;23.364;2023-08-06T09:14:08;3.70;;;2.65;;
6133;SDS011;3098;42.678;23.364;2023-08-06T09:16:37;4.57;;;2.75;;
6133;SDS011;3098;42.678;23.364;2023-08-06T09:19:09;4.10;;;3.05;;
6133;SDS011;3098;42.678;23.364;2023-08-06T09:21:37;3.47;;;2.83;;
6133;SDS011;3098;42.678;23.364;2023-08-06T09:24:07;5.78;;;3.17;;
6133;SDS011;3098;42.678;23.364;2023-08-06T09:26:36;6.57;;;2.70;;
6133;SDS011;3098;42.678;23.364;2023-08-06T09:29:04;3.92;;;2.75;;
6133;SDS011;3098;42.678;23.364;2023-08-06T09:31:33;4.95;;;2.60;;
6133;SDS011;3098;42.678;23.364;2023-08-06T09:34:00;3.33;;;2.83;;
6133;SDS011;3098;42.678;23.364;2023-08-06T09:36:29;3.20;;;2.67;;
6133;SDS011;3098;42.678;23.364;2023-08-06T09:38:56;3.92;;;2.67;;
6133;SDS011;3098;42.678;23.364;2023-08-06T09:41:27;3.30;;;2.50;;
6133;SDS011;3098;42.678;23.364;2023-08-06T09:43:55;3.03;;;2.70;;
6133;SDS011;3098;42.678;23.364;2023-08-06T09:46:21;3.50;;;2.80;;
6133;SDS011;3098;42.678;23.364;2023-08-06T09:48:50;2.90;;;2.28;;
6133;SDS011;3098;42.678;23.364;2023-08-06T09:51:17;4.63;;;2.30;;
6133;SDS011;3098;42.678;23.364;2023-08-06T09:53:46;2.50;;;2.22;;
6133;SDS011;3098;42.678;23.364;2023-08-06T09:56:15;3.25;;;2.10;;
6133;SDS011;3098;42.678;23.364;2023-08-06T09:58:44;2.70;;;2.22;;
6133;SDS011;3098;42.678;23.364;2023-08-06T10:01:15;4.75;;;2.40;;
6133;SDS011;3098;42.678;23.364;2023-08-06T10:03:44;2.55;;;2.00;;
6133;SDS011;3098;42.678;23.364;2023-08-06T10:06:13;2.65;;;2.00;;
6133;SDS011;3098;42.678;23.364;2023-08-06T10:08:40;2.83;;;2.20;;
6133;SDS011;3098;42.678;23.364;2023-08-06T10:11:09;2.70;;;1.95;;
6133;SDS011;3098;42.678;23.364;2023-08-06T10:13:37;4.05;;;2.35;;
6133;SDS011;3098;42.678;23.364;2023-08-06T10:16:05;3.83;;;2.65;;
6133;SDS011;3098;42.678;23.364;2023-08-06T10:18:33;3.78;;;2.20;;
6133;SDS011;3098;42.678;23.364;2023-08-06T10:21:04;3.63;;;2.30;;
6133;SDS011;3098;42.678;23.364;2023-08-06T10:23:35;3.53;;;2.42;;
6133;SDS011;3098;42.678;23.364;2023-08-06T10:26:03;3.05;;;2.15;;
6133;SDS011;3098;42.678;23.364;2023-08-06T10:28:36;1.75;;;1.60;;
6133;SDS011;3098;42.678;23.364;2023-08-06T10:31:04;2.97;;;1.92;;
6133;SDS011;3098;42.678;23.364;2023-08-06T10:33:41;5.30;;;2.58;;
6133;SDS011;3098;42.678;23.364;2023-08-06T10:36:10;2.42;;;1.95;;
6133;SDS011;3098;42.678;23.364;2023-08-06T10:38:43;2.90;;;2.20;;
6133;SDS011;3098;42.678;23.364;2023-08-06T10:41:15;2.25;;;1.90;;
6133;SDS011;3098;42.678;23.364;2023-08-06T10:43:44;3.83;;;2.25;;
6133;SDS011;3098;42.678;23.364;2023-08-06T10:46:21;3.28;;;2.30;;
6133;SDS011;3098;42.678;23.364;2023-08-06T10:48:50;3.70;;;2.30;;
6133;SDS011;3098;42.678;23.364;2023-08-06T10:51:17;3.88;;;2.60;;
6133;SDS011;3098;42.678;23.364;2023-08-06T10:53:45;5.53;;;3.30;;
6133;SDS011;3098;42.678;23.364;2023-08-06T10:56:13;2.70;;;2.22;;
6133;SDS011;3098;42.678;23.364;2023-08-06T10:58:42;3.72;;;2.58;;
6133;SDS011;3098;42.678;23.364;2023-08-06T11:01:13;3.85;;;2.65;;
6133;SDS011;3098;42.678;23.364;2023-08-06T11:03:41;3.70;;;2.38;;
6133;SDS011;3098;42.678;23.364;2023-08-06T11:06:09;7.05;;;2.42;;
6133;SDS011;3098;42.678;23.364;2023-08-06T11:08:38;3.95;;;2.40;;
6133;SDS011;3098;42.678;23.364;2023-08-06T11:11:07;4.05;;;2.40;;
6133;SDS011;3098;42.678;23.364;2023-08-06T11:13:38;3.53;;;2.30;;
6133;SDS011;3098;42.678;23.364;2023-08-06T11:16:07;3.15;;;2.45;;
6133;SDS011;3098;42.678;23.364;2023-08-06T11:18:39;5.50;;;3.35;;
6133;SDS011;3098;42.678;23.364;2023-08-06T11:21:08;5.45;;;3.78;;
6133;SDS011;3098;42.678;23.364;2023-08-06T11:23:37;5.25;;;3.03;;
6133;SDS011;3098;42.678;23.364;2023-08-06T11:26:05;7.80;;;2.88;;
6133;SDS011;3098;42.678;23.364;2023-08-06T11:28:32;5.03;;;3.13;;
6133;SDS011;3098;42.678;23.364;2023-08-06T11:31:00;2.92;;;2.55;;
6133;SDS011;3098;42.678;23.364;2023-08-06T11:33:30;4.28;;;2.58;;
6133;SDS011;3098;42.678;23.364;2023-08-06T11:35:58;3.65;;;2.60;;
6133;SDS011;3098;42.678;23.364;2023-08-06T11:38:26;6.65;;;2.75;;
6133;SDS011;3098;42.678;23.364;2023-08-06T11:40:55;4.25;;;3.05;;
6133;SDS011;3098;42.678;23.364;2023-08-06T11:43:23;8.15;;;3.83;;
6133;SDS011;3098;42.678;23.364;2023-08-06T11:45:50;4.10;;;3.03;;
6133;SDS011;3098;42.678;23.364;2023-08-06T11:48:20;4.40;;;3.20;;
6133;SDS011;3098;42.678;23.364;2023-08-06T11:50:49;6.03;;;3.58;;
6133;SDS011;3098;42.678;23.364;2023-08-06T11:53:26;5.55;;;3.55;;
6133;SDS011;3098;42.678;23.364;2023-08-06T11:55:55;4.57;;;3.53;;
6133;SDS011;3098;42.678;23.364;2023-08-06T11:58:23;5.88;;;3.20;;
6133;SDS011;3098;42.678;23.364;2023-08-06T12:00:50;6.43;;;3.17;;
6133;SDS011;3098;42.678;23.364;2023-08-06T12:03:19;3.92;;;3.17;;
6133;SDS011;3098;42.678;23.364;2023-08-06T12:05:55;4.30;;;2.90;;
6133;SDS011;3098;42.678;23.364;2023-08-06T12:08:26;4.15;;;2.83;;
6133;SDS011;3098;42.678;23.364;2023-08-06T12:10:54;5.93;;;3.55;;
6133;SDS011;3098;42.678;23.364;2023-08-06T12:13:22;4.43;;;3.30;;
6133;SDS011;3098;42.678;23.364;2023-08-06T12:15:49;6.50;;;3.20;;
6133;SDS011;3098;42.678;23.364;2023-08-06T12:18:18;7.22;;;3.97;;
6133;SDS011;3098;42.678;23.364;2023-08-06T12:20:46;7.00;;;4.80;;
6133;SDS011;3098;42.678;23.364;2023-08-06T12:23:15;7.25;;;4.20;;
6133;SDS011;3098;42.678;23.364;2023-08-06T12:25:43;16.45;;;7.15;;
6133;SDS011;3098;42.678;23.364;2023-08-06T12:28:11;6.05;;;4.45;;
6133;SDS011;3098;42.678;23.364;2023-08-06T12:30:39;8.32;;;4.28;;
6133;SDS011;3098;42.678;23.364;2023-08-06T12:33:09;7.68;;;5.47;;
6133;SDS011;3098;42.678;23.364;2023-08-06T12:35:37;5.88;;;4.30;;
6133;SDS011;3098;42.678;23.364;2023-08-06T12:38:04;8.68;;;4.28;;
6133;SDS011;3098;42.678;23.364;2023-08-06T12:40:33;7.68;;;4.70;;
6133;SDS011;3098;42.678;23.364;2023-08-06T12:43:00;7.22;;;4.60;;
6133;SDS011;3098;42.678;23.364;2023-08-06T12:45:29;9.18;;;4.50;;
6133;SDS011;3098;42.678;23.364;2023-08-06T12:47:56;6.82;;;4.55;;
6133;SDS011;3098;42.678;23.364;2023-08-06T12:50:24;7.78;;;4.72;;
6133;SDS011;3098;42.678;23.364;2023-08-06T12:52:51;6.95;;;4.90;;
6133;SDS011;3098;42.678;23.364;2023-08-06T12:55:19;6.80;;;4.82;;
6133;SDS011;3098;42.678;23.364;2023-08-06T12:57:48;6.05;;;4.32;;
6133;SDS011;3098;42.678;23.364;2023-08-06T13:00:15;7.15;;;4.68;;
6133;SDS011;3098;42.678;23.364;2023-08-06T13:02:42;9.95;;;4.40;;
6133;SDS011;3098;42.678;23.364;2023-08-06T13:05:10;8.38;;;5.40;;
6133;SDS011;3098;42.678;23.364;2023-08-06T13:07:37;7.35;;;4.47;;
6133;SDS011;3098;42.678;23.364;2023-08-06T13:10:05;8.68;;;4.40;;
6133;SDS011;3098;42.678;23.364;2023-08-06T13:12:32;8.40;;;4.50;;
6133;SDS011;3098;42.678;23.364;2023-08-06T13:15:01;6.50;;;4.30;;
6133;SDS011;3098;42.678;23.364;2023-08-06T13:17:28;9.70;;;4.55;;
6133;SDS011;3098;42.678;23.364;2023-08-06T13:19:56;7.13;;;4.30;;
6133;SDS011;3098;42.678;23.364;2023-08-06T13:22:23;7.78;;;4.85;;
6133;SDS011;3098;42.678;23.364;2023-08-06T13:24:50;5.88;;;4.80;;
6133;SDS011;3098;42.678;23.364;2023-08-06T13:27:17;6.32;;;4.45;;
6133;SDS011;3098;42.678;23.364;2023-08-06T13:29:44;7.57;;;4.15;;
6133;SDS011;3098;42.678;23.364;2023-08-06T13:32:13;5.45;;;3.85;;
6133;SDS011;3098;42.678;23.364;2023-08-06T13:34:41;4.43;;;3.80;;
6133;SDS011;3098;42.678;23.364;2023-08-06T13:37:08;7.93;;;4.10;;
6133;SDS011;3098;42.678;23.364;2023-08-06T13:39:36;6.55;;;4.47;;
6133;SDS011;3098;42.678;23.364;2023-08-06T13:42:04;8.07;;;4.40;;
6133;SDS011;3098;42.678;23.364;2023-08-06T13:44:32;8.57;;;4.85;;
6133;SDS011;3098;42.678;23.364;2023-08-06T13:47:00;7.45;;;5.00;;
6133;SDS011;3098;42.678;23.364;2023-08-06T13:49:29;5.47;;;3.88;;
6133;SDS011;3098;42.678;23.364;2023-08-06T13:51:56;7.05;;;4.30;;
6133;SDS011;3098;42.678;23.364;2023-08-06T13:54:24;7.53;;;4.80;;
6133;SDS011;3098;42.678;23.364;2023-08-06T13:56:51;8.65;;;5.70;;
6133;SDS011;3098;42.678;23.364;2023-08-06T13:59:19;7.57;;;4.90;;
6133;SDS011;3098;42.678;23.364;2023-08-06T14:01:49;9.65;;;5.85;;
6133;SDS011;3098;42.678;23.364;2023-08-06T14:04:18;6.30;;;4.35;;
6133;SDS011;3098;42.678;23.364;2023-08-06T14:06:48;7.47;;;4.82;;
6133;SDS011;3098;42.678;23.364;2023-08-06T14:09:15;7.70;;;4.28;;
6133;SDS011;3098;42.678;23.364;2023-08-06T14:11:43;5.55;;;4.03;;
6133;SDS011;3098;42.678;23.364;2023-08-06T14:14:11;5.20;;;3.90;;
6133;SDS011;3098;42.678;23.364;2023-08-06T14:16:39;10.98;;;4.28;;
6133;SDS011;3098;42.678;23.364;2023-08-06T14:19:05;8.48;;;4.80;;
6133;SDS011;3098;42.678;23.364;2023-08-06T14:21:32;5.80;;;4.40;;
6133;SDS011;3098;42.678;23.364;2023-08-06T14:24:01;7.97;;;4.88;;
6133;SDS011;3098;42.678;23.364;2023-08-06T14:26:28;9.05;;;6.47;;
6133;SDS011;3098;42.678;23.364;2023-08-06T14:28:55;8.82;;;4.85;;
6133;SDS011;3098;42.678;23.364;2023-08-06T14:31:22;5.57;;;4.53;;
6133;SDS011;3098;42.678;23.364;2023-08-06T14:33:50;4.47;;;3.65;;
6133;SDS011;3098;42.678;23.364;2023-08-06T14:36:17;8.40;;;5.68;;
6133;SDS011;3098;42.678;23.364;2023-08-06T14:38:45;6.05;;;3.97;;
6133;SDS011;3098;42.678;23.364;2023-08-06T14:41:14;5.78;;;3.90;;
6133;SDS011;3098;42.678;23.364;2023-08-06T14:43:41;5.35;;;3.95;;
6133;SDS011;3098;42.678;23.364;2023-08-06T14:46:09;7.35;;;3.83;;
6133;SDS011;3098;42.678;23.364;2023-08-06T14:48:36;8.35;;;3.95;;
6133;SDS011;3098;42.678;23.364;2023-08-06T14:51:04;6.72;;;4.05;;
6133;SDS011;3098;42.678;23.364;2023-08-06T14:53:32;4.97;;;3.50;;
6133;SDS011;3098;42.678;23.364;2023-08-06T14:56:00;8.35;;;3.70;;
6133;SDS011;3098;42.678;23.364;2023-08-06T14:58:33;5.22;;;3.70;;
6133;SDS011;3098;42.678;23.364;2023-08-06T15:01:00;8.75;;;3.95;;
6133;SDS011;3098;42.678;23.364;2023-08-06T15:03:28;7.50;;;4.32;;
6133;SDS011;3098;42.678;23.364;2023-08-06T15:05:56;6.28;;;4.20;;